createdAt,value
2022-11-28T06:30:32.999Z,4.50
2022-11-28T06:33:03.948Z,4.20
2022-11-28T06:35:31.164Z,5.50
2022-11-28T06:37:58.349Z,4.20
2022-11-28T06:40:25.627Z,4.20
2022-11-28T06:42:52.823Z,4.30
2022-11-28T06:45:20.146Z,4.30
2022-11-28T06:47:48.128Z,4.20
2022-11-28T06:50:15.410Z,4.10
2022-11-28T06:52:42.742Z,4.10
2022-11-28T06:55:10.118Z,4.20
2022-11-28T06:57:38.098Z,4.00
2022-11-28T07:00:06.004Z,4.00
2022-11-28T07:02:33.935Z,4.00
2022-11-28T07:05:14.562Z,4.20
2022-11-28T07:07:53.679Z,4.00
2022-11-28T07:10:23.911Z,4.00
2022-11-28T07:12:55.715Z,5.50
2022-11-28T07:15:24.170Z,4.10
2022-11-28T07:17:52.356Z,4.10
2022-11-28T07:20:19.904Z,3.20
2022-11-28T07:22:48.851Z,4.10
2022-11-28T07:25:16.252Z,4.20
2022-11-28T07:27:43.969Z,4.30
2022-11-28T07:30:13.577Z,3.80
2022-11-28T07:32:42.162Z,4.30
2022-11-28T07:35:09.526Z,4.30
2022-11-28T07:37:36.881Z,3.90
2022-11-28T07:40:04.810Z,4.30
2022-11-28T07:42:32.128Z,4.20
2022-11-28T07:44:59.480Z,3.10
2022-11-28T07:47:27.039Z,5.20
2022-11-28T07:49:54.608Z,4.30
2022-11-28T07:52:21.950Z,4.50
2022-11-28T07:54:50.335Z,4.50
2022-11-28T07:57:17.914Z,4.50
2022-11-28T07:59:45.475Z,4.60
2022-11-28T08:02:13.579Z,4.60
2022-11-28T08:04:47.590Z,4.70
2022-11-28T08:07:16.361Z,6.20
2022-11-28T08:09:44.100Z,4.50
2022-11-28T08:12:11.830Z,4.70
2022-11-28T08:14:42.802Z,4.80
2022-11-28T08:17:19.774Z,5.00
2022-11-28T08:19:50.712Z,5.10
2022-11-28T08:22:19.239Z,5.20
2022-11-28T08:25:03.152Z,3.90
2022-11-28T08:27:33.203Z,4.50
2022-11-28T08:30:01.762Z,4.60
2022-11-28T08:32:33.194Z,4.70
2022-11-28T08:35:17.836Z,5.20
2022-11-28T08:37:49.804Z,3.80
2022-11-28T08:40:19.110Z,5.30
2022-11-28T08:42:48.741Z,5.10
2022-11-28T08:45:19.611Z,6.20
2022-11-28T08:47:53.573Z,4.80
2022-11-28T08:50:28.134Z,5.30
2022-11-28T08:53:08.109Z,5.50
2022-11-28T08:55:40.465Z,5.60
2022-11-28T08:58:14.713Z,6.00
2022-11-28T09:00:45.701Z,4.90
2022-11-28T09:03:16.095Z,5.70
2022-11-28T09:05:46.294Z,7.30
2022-11-28T09:08:14.863Z,6.80
2022-11-28T09:10:43.920Z,6.20
2022-11-28T09:13:13.375Z,6.40
2022-11-28T09:15:45.071Z,6.30
2022-11-28T09:18:14.261Z,6.50
2022-11-28T09:20:42.304Z,4.40
2022-11-28T09:23:10.263Z,7.00
2022-11-28T09:25:42.545Z,6.30
2022-11-28T09:28:10.448Z,6.20
2022-11-28T09:30:37.860Z,6.40
2022-11-28T09:33:05.438Z,7.20
2022-11-28T09:35:32.713Z,7.40
2022-11-28T09:38:00.222Z,6.00
2022-11-28T09:40:36.714Z,6.70
2022-11-28T09:43:16.817Z,6.90
2022-11-28T09:45:45.983Z,7.00
2022-11-28T09:48:30.346Z,7.10
2022-11-28T09:51:06.772Z,7.10
2022-11-28T09:53:45.628Z,7.00
2022-11-28T09:56:18.361Z,7.10
2022-11-28T09:58:52.075Z,7.10
2022-11-28T10:01:43.347Z,7.60
2022-11-28T10:04:28.708Z,7.20
2022-11-28T10:07:19.737Z,7.10
2022-11-28T10:10:20.167Z,6.90
2022-11-28T10:13:15.949Z,7.10
2022-11-28T10:15:50.736Z,7.20
2022-11-28T10:18:45.129Z,7.20
2022-11-28T10:21:41.626Z,7.30
2022-11-28T10:24:20.598Z,7.30
2022-11-28T10:26:54.399Z,7.90
2022-11-28T10:29:29.715Z,7.40
2022-11-28T10:32:02.041Z,7.50
2022-11-28T10:34:42.478Z,7.50
2022-11-28T10:37:21.104Z,7.70
2022-11-28T10:39:51.615Z,7.80
2022-11-28T10:42:36.544Z,7.80
2022-11-28T10:45:37.517Z,7.80
2022-11-28T10:48:41.015Z,7.80
2022-11-28T10:51:39.020Z,7.80
2022-11-28T10:54:56.848Z,7.80
2022-11-28T10:57:41.414Z,7.70
2022-11-28T11:00:19.014Z,7.80
2022-11-28T11:02:51.985Z,7.90
2022-11-28T11:05:25.593Z,7.30
2022-11-28T11:07:55.896Z,7.70
2022-11-28T11:10:34.224Z,8.20
2022-11-28T11:13:15.776Z,8.40
2022-11-28T11:15:46.210Z,9.00
2022-11-28T11:18:39.878Z,8.40
2022-11-28T11:21:25.839Z,8.50
2022-11-28T11:24:15.900Z,8.60
2022-11-28T11:26:48.540Z,8.60
2022-11-28T11:29:35.854Z,8.60
2022-11-28T11:32:18.723Z,8.40
2022-11-28T11:34:48.418Z,8.80
2022-11-28T11:37:40.971Z,8.80
2022-11-28T11:40:25.330Z,10.20
2022-11-28T11:42:57.050Z,9.00
2022-11-28T11:45:30.031Z,8.70
2022-11-28T11:47:58.298Z,8.70
2022-11-28T11:50:29.676Z,8.70
2022-11-28T11:55:53.841Z,8.80
2022-11-28T11:58:26.815Z,8.70
2022-11-28T12:00:57.388Z,8.70
2022-11-28T12:03:41.965Z,8.70
2022-11-28T12:06:30.864Z,8.70
2022-11-28T12:09:16.281Z,8.80
2022-11-28T12:11:50.807Z,8.70
2022-11-28T12:14:36.162Z,8.50
2022-11-28T12:17:58.286Z,8.60
2022-11-28T12:24:03.743Z,8.30
2022-11-28T12:26:52.542Z,8.40
2022-11-28T12:30:00.142Z,8.30
2022-11-28T12:35:40.110Z,8.00
2022-11-28T12:38:32.416Z,8.40
2022-11-28T12:41:40.293Z,8.50
2022-11-28T12:44:28.493Z,8.50
2022-11-28T12:47:10.546Z,8.60
2022-11-28T12:50:03.025Z,8.50
2022-11-28T12:52:44.207Z,8.60
2022-11-28T12:55:25.299Z,8.70
2022-11-28T12:58:20.114Z,8.70
2022-11-28T13:01:20.978Z,8.60
2022-11-28T13:04:21.830Z,8.60
2022-11-28T13:07:17.485Z,8.60
2022-11-28T13:10:14.694Z,8.60
2022-11-28T13:12:55.919Z,8.50
2022-11-28T13:15:53.145Z,8.50
2022-11-28T13:18:43.967Z,8.50
2022-11-28T13:24:07.565Z,8.90
2022-11-28T13:26:59.016Z,8.70
2022-11-28T13:29:51.914Z,8.70
2022-11-28T13:32:31.285Z,8.70
2022-11-28T13:34:59.795Z,8.70
2022-11-28T13:40:45.762Z,8.70
2022-11-28T13:43:36.544Z,8.50
2022-11-28T13:51:33.224Z,8.40
2022-11-28T13:57:27.986Z,8.40
2022-11-28T14:00:04.787Z,8.40
2022-11-28T14:02:41.949Z,8.50
2022-11-28T14:05:28.596Z,8.50
2022-11-28T14:07:56.989Z,8.50
2022-11-28T14:11:05.700Z,8.50
2022-11-28T14:14:13.321Z,8.50
2022-11-28T14:16:56.854Z,8.50
2022-11-28T14:20:05.760Z,8.40
2022-11-28T14:22:46.548Z,8.40
2022-11-28T14:25:24.184Z,8.30
2022-11-28T14:27:55.039Z,8.30
2022-11-28T14:30:41.121Z,8.30
2022-11-28T14:33:20.336Z,8.30
2022-11-28T14:38:41.997Z,8.20
2022-11-28T14:41:12.793Z,8.20
2022-11-28T14:43:45.883Z,8.10
2022-11-28T14:52:37.803Z,8.10
2022-11-28T14:55:15.069Z,8.00
2022-11-28T14:58:03.128Z,8.00
2022-11-28T15:00:47.296Z,7.90
2022-11-28T15:03:49.798Z,7.90
2022-11-28T15:06:23.360Z,8.00
2022-11-28T15:09:07.271Z,7.90
2022-11-28T15:11:47.202Z,7.90
2022-11-28T15:14:20.554Z,7.80
2022-11-28T15:16:50.806Z,7.80
2022-11-28T15:21:58.136Z,7.80
2022-11-28T15:29:54.996Z,7.40
2022-11-28T15:32:23.478Z,7.80
2022-11-28T15:34:58.737Z,7.80
2022-11-28T15:37:30.962Z,7.70
2022-11-28T15:39:59.907Z,7.70
2022-11-28T15:42:32.450Z,7.70
2022-11-28T15:45:08.239Z,7.70
2022-11-28T15:47:35.528Z,7.80
2022-11-28T15:50:25.149Z,7.70
2022-11-28T15:53:04.158Z,7.80
2022-11-28T15:55:34.235Z,7.70
2022-11-28T15:58:23.523Z,7.70
2022-11-28T16:00:59.566Z,7.70
2022-11-28T16:03:30.904Z,7.70
2022-11-28T16:05:59.587Z,7.70
2022-11-28T16:08:32.080Z,7.60
2022-11-28T16:11:02.276Z,7.70
2022-11-28T16:13:31.456Z,7.70
2022-11-28T16:16:01.347Z,7.70
2022-11-28T16:18:30.189Z,7.60
2022-11-28T16:20:59.385Z,7.60
2022-11-28T16:23:35.979Z,7.60
2022-11-28T16:26:20.851Z,7.60
2022-11-28T16:29:01.068Z,7.60
2022-11-28T16:31:29.580Z,7.60
2022-11-28T16:33:58.367Z,7.60
2022-11-28T16:41:52.326Z,7.60
2022-11-28T16:44:23.595Z,7.60
2022-11-28T16:46:54.025Z,7.60
2022-11-28T16:49:51.374Z,7.60
2022-11-28T16:54:59.451Z,7.50
2022-11-28T16:57:46.410Z,7.50
